createdAt,value
2022-09-15T00:01:48.305Z,53.55
2022-09-15T00:04:17.268Z,53.48
2022-09-15T00:06:46.057Z,53.49
2022-09-15T06:17:03.018Z,58.32
2022-09-15T06:19:33.633Z,58.15
2022-09-15T06:22:02.427Z,57.89
2022-09-15T06:24:31.626Z,57.88
2022-09-15T06:27:00.924Z,57.64
2022-09-15T06:29:30.329Z,57.31
2022-09-15T06:32:03.012Z,57.05
2022-09-15T06:34:33.192Z,57.02
2022-09-15T06:37:02.023Z,56.74
2022-09-15T06:39:30.918Z,56.57
2022-09-15T06:42:02.620Z,56.34
2022-09-15T06:44:32.486Z,56.11
2022-09-15T06:47:01.678Z,55.98
2022-09-15T06:49:31.396Z,55.62
2022-09-15T06:52:02.555Z,55.48
2022-09-15T06:54:31.540Z,55.37
2022-09-15T06:57:00.528Z,55.16
2022-09-15T06:59:29.524Z,55.11
2022-09-15T07:02:05.556Z,54.96
2022-09-15T07:04:38.223Z,54.80
2022-09-15T07:07:06.935Z,54.51
2022-09-15T07:09:38.803Z,54.60
2022-09-15T07:12:10.059Z,54.36
2022-09-15T07:14:38.922Z,54.25
2022-09-15T07:17:07.688Z,54.14
2022-09-15T07:19:36.735Z,54.00
2022-09-15T07:22:05.933Z,54.02
2022-09-15T07:24:34.724Z,53.84
2022-09-15T07:27:03.828Z,53.86
2022-09-15T07:29:37.111Z,53.92
2022-09-15T07:32:06.554Z,53.74
2022-09-15T07:34:35.514Z,53.70
2022-09-15T07:37:04.731Z,53.81
2022-09-15T07:39:33.708Z,53.71
2022-09-15T07:42:02.500Z,53.58
2022-09-15T07:44:31.392Z,53.51
2022-09-15T07:47:00.591Z,53.43
2022-09-15T12:03:36.561Z,57.96
2022-09-15T12:06:34.704Z,57.80
2022-09-15T12:09:12.896Z,57.60
2022-09-15T12:11:56.632Z,57.43
2022-09-15T12:14:34.492Z,57.19
2022-09-15T12:17:08.094Z,56.76
2022-09-15T12:20:00.034Z,56.58
2022-09-15T12:22:36.905Z,56.45
2022-09-15T12:25:29.453Z,56.19
2022-09-15T12:28:28.249Z,56.06
2022-09-15T12:31:34.976Z,55.83
2022-09-15T12:34:35.285Z,55.56
2022-09-15T12:37:18.244Z,55.46
2022-09-15T12:39:48.030Z,55.11
2022-09-15T12:42:32.752Z,55.04
2022-09-15T12:45:23.147Z,54.89
2022-09-15T12:48:03.761Z,54.76
2022-09-15T12:50:33.629Z,54.48
2022-09-15T12:53:21.345Z,54.45
2022-09-15T12:55:56.400Z,54.25
2022-09-15T12:58:42.225Z,54.15
2022-09-15T13:01:19.799Z,54.10
2022-09-15T13:03:54.014Z,53.88
2022-09-15T13:06:29.652Z,53.84
2022-09-15T13:09:07.452Z,53.72
2022-09-15T13:11:39.390Z,53.61
2022-09-15T13:14:35.751Z,53.44
2022-09-15T13:17:20.064Z,53.37
2022-09-15T13:19:57.826Z,53.39
2022-09-15T13:22:36.936Z,53.48
2022-09-15T13:25:13.921Z,53.32
2022-09-15T13:27:56.877Z,53.28
2022-09-15T13:31:06.722Z,53.08
2022-09-15T13:38:15.174Z,53.13
2022-09-15T13:41:34.213Z,53.40
2022-09-15T13:44:05.863Z,53.29
2022-09-15T13:47:08.342Z,53.35
2022-09-15T13:50:12.652Z,53.34
2022-09-15T13:53:24.363Z,53.30
2022-09-15T13:55:57.148Z,53.55
2022-09-15T14:01:21.282Z,53.31
2022-09-15T14:03:58.640Z,53.35
2022-09-15T14:06:36.386Z,53.34
2022-09-15T14:09:18.949Z,53.35
2022-09-15T14:12:01.460Z,53.25
2022-09-15T14:14:33.424Z,53.23
2022-09-15T14:17:02.594Z,53.06
2022-09-15T14:19:38.878Z,53.14
2022-09-15T14:22:31.931Z,53.06
2022-09-15T14:25:07.924Z,53.15
2022-09-15T14:27:44.349Z,53.10
2022-09-15T14:30:20.231Z,53.09
2022-09-15T14:32:54.672Z,53.01
2022-09-15T14:35:36.579Z,53.00
2022-09-15T14:38:05.547Z,53.08
2022-09-15T14:40:38.028Z,53.07
2022-09-15T14:43:36.606Z,53.09
2022-09-15T14:46:14.009Z,53.22
2022-09-15T14:48:43.093Z,53.19
2022-09-15T14:51:24.991Z,53.25
2022-09-15T14:54:00.180Z,53.33
2022-09-15T14:56:35.922Z,53.41
2022-09-15T14:59:12.006Z,53.47
2022-09-15T15:01:49.880Z,53.32
2022-09-15T15:04:43.283Z,53.19
2022-09-15T15:07:25.929Z,53.36
2022-09-15T15:10:04.451Z,53.38
2022-09-15T15:13:15.367Z,53.39
2022-09-15T15:15:45.756Z,53.27
2022-09-15T15:18:35.736Z,53.15
2022-09-15T15:21:05.821Z,53.20
2022-09-15T15:23:34.766Z,53.19
2022-09-15T15:26:37.750Z,53.27
2022-09-15T15:29:58.400Z,53.42
2022-09-15T15:32:34.815Z,53.63
2022-09-15T15:35:04.118Z,53.70
2022-09-15T15:37:34.867Z,53.52
2022-09-15T15:40:07.417Z,53.63
2022-09-15T15:42:36.634Z,53.46
2022-09-15T15:45:22.894Z,53.42
2022-09-15T15:47:52.488Z,53.57
2022-09-15T15:50:26.295Z,53.22
2022-09-15T15:52:56.057Z,53.04
2022-09-15T15:55:36.973Z,52.67
2022-09-15T15:58:06.650Z,52.21
2022-09-15T16:00:57.336Z,51.88
2022-09-15T16:03:27.465Z,51.59
2022-09-15T16:06:00.247Z,51.48
2022-09-15T16:08:39.858Z,51.43
2022-09-15T16:11:13.191Z,51.43
2022-09-15T16:13:42.537Z,51.65
2022-09-15T16:16:24.143Z,51.64
2022-09-15T16:18:53.792Z,51.60
2022-09-15T16:21:37.015Z,51.57
2022-09-15T16:24:12.977Z,51.74
2022-09-15T16:26:43.106Z,51.94
2022-09-15T16:29:13.114Z,52.09
2022-09-15T16:31:43.147Z,52.28
2022-09-15T16:34:17.733Z,52.29
2022-09-15T16:36:46.854Z,52.48
2022-09-15T16:39:15.647Z,52.58
2022-09-15T16:41:44.538Z,52.62
2022-09-15T16:44:18.943Z,52.52
2022-09-15T16:46:48.102Z,52.51
2022-09-15T16:49:17.869Z,52.74
2022-09-15T16:51:46.967Z,52.83
2022-09-15T16:54:20.239Z,52.70
2022-09-15T16:56:49.254Z,52.78
2022-09-15T16:59:18.458Z,52.67
2022-09-15T17:01:47.389Z,52.81
2022-09-15T17:04:17.020Z,52.82
2022-09-15T17:06:46.152Z,52.95
2022-09-15T17:09:16.478Z,52.91
2022-09-15T17:11:45.577Z,52.91
2022-09-15T17:14:16.450Z,52.97
2022-09-15T17:16:47.558Z,52.82
2022-09-15T17:19:16.552Z,52.85
2022-09-15T17:21:46.878Z,52.90
2022-09-15T17:24:15.768Z,52.84
2022-09-15T17:26:44.559Z,52.89
2022-09-15T17:29:15.610Z,52.98
2022-09-15T17:31:44.389Z,52.84
